CMB822 Details

Departure: Grantley Adams International Airport (TBPB)
Arrival: Patrick Air Force Base (KCOF) at N/A
Route: BGI UA555 ILURI A555 COY SJU RTE6 BEANO Y290 HAGIT Y352 ZQA A555 ZBV BR57V WIERS BR22V FLL LBV COSTR3
Notes: USTRANSCOM CONTRACT FLIGHT


Current Weather Information
TBPB 171700Z 09013KT 9999 -SHRA FEW012CB SCT016 28/24 Q1016 NOSIG
KCOF 171656Z AUTO 13009KT 10SM FEW190 30/26 A3010 RMK AO2 SLP197 T02990260 $